createdAt,value
2022-09-25T00:02:30.271Z,55.25
2022-09-25T00:05:00.166Z,55.22
2022-09-25T00:07:53.638Z,55.31
2022-09-25T00:10:24.715Z,55.27
2022-09-25T00:12:55.848Z,55.29
2022-09-25T00:15:30.990Z,55.24
2022-09-25T00:18:03.622Z,55.21
2022-09-25T00:20:32.924Z,55.29
2022-09-25T00:23:08.571Z,55.42
2022-09-25T00:25:41.639Z,55.55
2022-09-25T00:28:18.223Z,55.48
2022-09-25T00:30:48.293Z,55.58
2022-09-25T00:33:18.966Z,55.54
2022-09-25T00:36:17.348Z,55.54
2022-09-25T00:39:11.519Z,55.54
2022-09-25T00:41:43.409Z,55.54
2022-09-25T00:48:40.214Z,55.63
2022-09-25T00:51:13.804Z,55.60
2022-09-25T00:54:32.943Z,55.61
2022-09-25T00:57:34.055Z,55.60
2022-09-25T01:00:38.955Z,55.61
2022-09-25T01:03:39.694Z,55.56
2022-09-25T01:06:21.681Z,55.56
2022-09-25T01:08:56.410Z,55.62
2022-09-25T01:15:20.001Z,55.51
2022-09-25T01:18:02.871Z,55.54
2022-09-25T01:21:04.270Z,55.50
2022-09-25T01:24:04.385Z,55.47
2022-09-25T01:27:23.379Z,55.52
2022-09-25T01:30:27.991Z,55.58
2022-09-25T01:33:11.504Z,55.58
2022-09-25T01:35:50.496Z,55.56
2022-09-25T01:38:28.451Z,55.47
2022-09-25T01:41:33.613Z,55.53
2022-09-25T01:44:13.856Z,55.49
2022-09-25T01:47:10.074Z,55.36
2022-09-25T01:50:10.423Z,55.37
2022-09-25T01:52:45.989Z,55.52
2022-09-25T01:55:26.946Z,55.46
2022-09-25T01:58:31.791Z,55.34
2022-09-25T02:01:10.429Z,55.27
2022-09-25T02:04:56.505Z,55.22
2022-09-25T02:07:30.312Z,55.31
2022-09-25T02:10:33.071Z,55.36
2022-09-25T02:13:10.114Z,55.33
2022-09-25T02:15:44.582Z,55.27
2022-09-25T02:18:42.480Z,55.32
2022-09-25T02:21:45.242Z,55.34
2022-09-25T02:28:05.394Z,55.37
2022-09-25T02:30:39.332Z,55.41
2022-09-25T02:34:00.259Z,55.39
2022-09-25T02:37:27.792Z,55.49
2022-09-25T02:47:17.846Z,55.57
2022-09-25T02:56:46.814Z,55.59
2022-09-25T03:00:03.780Z,55.65
2022-09-25T03:03:01.487Z,55.61
2022-09-25T03:05:42.168Z,55.57
2022-09-25T03:18:38.449Z,55.73
2022-09-25T03:24:40.458Z,55.78
2022-09-25T03:27:13.953Z,55.90
2022-09-25T03:30:17.051Z,55.85
2022-09-25T03:33:20.349Z,55.82
2022-09-25T03:37:11.258Z,55.86
2022-09-25T03:39:40.026Z,55.82
2022-09-25T03:42:13.259Z,55.70
2022-09-25T03:44:49.018Z,55.91
2022-09-25T03:47:45.640Z,55.83
2022-09-25T03:50:18.733Z,55.97
2022-09-25T03:52:48.519Z,56.05
2022-09-25T03:55:23.468Z,56.00
2022-09-25T03:58:04.900Z,56.07
2022-09-25T04:00:43.582Z,56.00
2022-09-25T04:03:40.500Z,55.94
2022-09-25T04:06:37.793Z,56.02
2022-09-25T04:09:59.027Z,56.04
2022-09-25T04:12:56.641Z,55.98
2022-09-25T04:15:32.930Z,56.09
2022-09-25T04:18:07.188Z,56.00
2022-09-25T04:20:38.504Z,55.96
2022-09-25T04:23:09.965Z,55.95
2022-09-25T04:25:48.583Z,55.94
2022-09-25T04:28:26.256Z,55.97
2022-09-25T04:31:22.386Z,55.87
2022-09-25T04:37:41.890Z,55.87
2022-09-25T04:41:03.267Z,55.84
2022-09-25T04:44:26.269Z,55.95
2022-09-25T04:47:24.702Z,55.93
2022-09-25T04:50:23.672Z,55.99
2022-09-25T04:52:57.787Z,56.02
2022-09-25T04:55:30.798Z,56.09
2022-09-25T05:04:45.978Z,55.90
2022-09-25T05:07:53.943Z,56.01
2022-09-25T05:11:12.198Z,55.99
2022-09-25T05:13:50.139Z,56.08
2022-09-25T05:16:25.979Z,56.18
2022-09-25T05:19:46.816Z,56.26
2022-09-25T05:22:44.124Z,56.32
2022-09-25T05:25:23.713Z,56.29
2022-09-25T05:31:10.059Z,56.29
2022-09-25T05:37:10.867Z,56.19
2022-09-25T05:40:29.101Z,56.21
2022-09-25T05:43:00.660Z,56.32
2022-09-25T05:45:32.029Z,56.36
2022-09-25T05:48:07.781Z,56.11
2022-09-25T05:50:39.787Z,56.17
2022-09-25T05:53:14.373Z,56.04
2022-09-25T06:02:59.462Z,56.05
2022-09-25T06:05:37.229Z,56.18
2022-09-25T06:08:42.483Z,56.27
2022-09-25T06:12:11.275Z,56.23
2022-09-25T06:14:48.432Z,56.13
2022-09-25T06:17:20.816Z,56.25
2022-09-25T06:19:51.301Z,56.21
2022-09-25T06:29:08.205Z,56.40
2022-09-25T06:31:43.027Z,56.43
2022-09-25T06:35:28.774Z,56.51
2022-09-25T06:38:04.877Z,56.56
2022-09-25T06:40:41.777Z,56.53
2022-09-25T06:43:43.181Z,56.65
2022-09-25T06:46:47.703Z,56.68
2022-09-25T06:49:28.487Z,56.83
2022-09-25T06:52:25.125Z,56.75
2022-09-25T06:55:00.262Z,56.74
2022-09-25T06:57:55.595Z,56.86
2022-09-25T07:00:28.479Z,56.91
2022-09-25T07:03:21.421Z,56.99
2022-09-25T07:05:53.861Z,57.13
2022-09-25T07:08:26.679Z,57.20
2022-09-25T07:11:00.188Z,57.19
2022-09-25T07:14:00.488Z,57.19
2022-09-25T07:16:56.835Z,57.26
2022-09-25T07:19:30.129Z,57.34
2022-09-25T07:22:27.618Z,57.31
2022-09-25T07:25:23.310Z,57.39
2022-09-25T07:27:52.376Z,57.52
2022-09-25T07:30:20.786Z,57.36
2022-09-25T07:36:45.323Z,57.36
2022-09-25T07:39:40.586Z,57.30
2022-09-25T07:42:11.395Z,57.07
2022-09-25T07:45:15.347Z,57.00
2022-09-25T07:48:17.739Z,57.01
2022-09-25T07:54:43.284Z,56.95
2022-09-25T07:57:38.895Z,56.84
2022-09-25T08:00:36.150Z,56.71
2022-09-25T08:03:11.070Z,56.78
2022-09-25T08:05:45.280Z,56.75
2022-09-25T08:10:26.829Z,58.56
2022-09-25T08:13:31.126Z,57.38
2022-09-25T08:16:05.110Z,57.40
2022-09-25T08:18:38.394Z,57.32
2022-09-25T08:21:40.854Z,57.22
2022-09-25T08:25:04.483Z,57.23
2022-09-25T08:27:47.393Z,57.14
2022-09-25T08:30:18.950Z,57.07
2022-09-25T08:33:39.559Z,56.81
2022-09-25T08:36:36.247Z,56.73
2022-09-25T08:39:11.650Z,56.60
2022-09-25T08:41:50.350Z,56.66
2022-09-25T08:44:29.690Z,56.52
2022-09-25T08:47:38.728Z,56.30
2022-09-25T08:50:38.646Z,56.13
2022-09-25T08:57:56.968Z,56.10
2022-09-25T09:01:45.131Z,56.01
2022-09-25T09:04:51.507Z,55.51
2022-09-25T09:07:45.012Z,55.59
2022-09-25T09:10:31.449Z,55.54
2022-09-25T09:13:16.108Z,55.13
2022-09-25T09:16:36.456Z,54.93
2022-09-25T09:19:10.871Z,54.69
2022-09-25T09:22:31.340Z,54.91
2022-09-25T09:25:13.481Z,54.97
2022-09-25T09:28:14.501Z,54.91
2022-09-25T09:30:53.642Z,55.29
2022-09-25T09:33:49.715Z,55.44
2022-09-25T09:36:50.240Z,55.21
2022-09-25T09:39:50.177Z,54.98
2022-09-25T09:49:14.941Z,55.18
2022-09-25T09:52:20.561Z,55.47
2022-09-25T09:55:30.475Z,55.25
2022-09-25T09:58:10.057Z,55.32
2022-09-25T10:01:16.252Z,55.39
2022-09-25T10:04:24.779Z,55.04
2022-09-25T10:07:24.762Z,55.44
2022-09-25T10:10:27.542Z,55.17
2022-09-25T10:16:13.191Z,55.90
2022-09-25T10:19:19.500Z,55.34
2022-09-25T10:22:23.063Z,54.96
2022-09-25T10:27:55.726Z,54.81
2022-09-25T10:30:24.287Z,54.76
2022-09-25T10:33:06.318Z,54.24
2022-09-25T10:35:49.327Z,54.26
2022-09-25T10:38:55.283Z,54.22
2022-09-25T10:41:49.212Z,53.78
2022-09-25T10:44:25.491Z,53.78
2022-09-25T10:47:58.503Z,53.91
2022-09-25T10:50:41.145Z,52.99
2022-09-25T10:53:38.899Z,52.82
2022-09-25T10:56:15.753Z,53.14
2022-09-25T10:59:20.115Z,52.67
2022-09-25T11:02:02.625Z,52.10
2022-09-25T11:04:57.857Z,51.68
2022-09-25T11:07:31.431Z,51.15
2022-09-25T11:11:15.760Z,51.24
2022-09-25T11:15:00.441Z,50.67
2022-09-25T11:17:56.758Z,50.06
2022-09-25T11:20:33.592Z,50.31
2022-09-25T11:23:26.199Z,50.26
2022-09-25T11:26:36.687Z,50.04
2022-09-25T11:29:41.622Z,49.73
2022-09-25T11:32:23.660Z,49.52
2022-09-25T11:35:31.965Z,49.41
2022-09-25T11:38:20.912Z,49.34
2022-09-25T11:45:33.421Z,48.87
2022-09-25T11:52:43.793Z,49.16
2022-09-25T11:55:47.175Z,48.83
2022-09-25T12:01:54.780Z,48.42
2022-09-25T12:08:55.705Z,47.61
2022-09-25T12:17:57.021Z,47.60
2022-09-25T12:21:07.266Z,47.62
2022-09-25T12:23:46.001Z,47.48
2022-09-25T12:26:53.220Z,47.97
2022-09-25T12:29:47.574Z,47.76
2022-09-25T12:32:53.211Z,48.32
2022-09-25T12:35:38.927Z,48.33
2022-09-25T12:38:21.242Z,48.34
2022-09-25T12:44:56.603Z,48.53
2022-09-25T12:58:00.647Z,47.89
2022-09-25T13:00:35.677Z,47.75
2022-09-25T13:03:22.123Z,47.66
2022-09-25T13:19:53.583Z,47.18
2022-09-25T13:22:50.766Z,47.13
2022-09-25T13:25:47.262Z,47.33
2022-09-25T13:28:27.453Z,47.50
2022-09-25T13:31:12.515Z,47.65
2022-09-25T13:34:16.900Z,47.87
2022-09-25T13:36:50.554Z,47.75
2022-09-25T13:42:57.980Z,48.03
2022-09-25T13:45:35.380Z,47.90
2022-09-25T13:48:22.312Z,47.83
2022-09-25T13:51:45.144Z,47.87
2022-09-25T13:54:33.248Z,47.64
2022-09-25T13:57:18.374Z,47.79
2022-09-25T14:00:06.348Z,47.84
2022-09-25T14:02:46.988Z,47.91
2022-09-25T14:05:27.447Z,48.06
2022-09-25T14:11:41.152Z,48.13
2022-09-25T14:17:21.794Z,48.27
2022-09-25T14:19:58.986Z,48.30
2022-09-25T14:23:42.632Z,48.17
2022-09-25T14:26:21.931Z,48.32
2022-09-25T14:28:54.941Z,48.23
2022-09-25T14:31:45.171Z,48.26
2022-09-25T14:34:44.232Z,48.34
2022-09-25T14:40:46.250Z,48.33
2022-09-25T14:43:44.755Z,48.63
2022-09-25T14:46:19.325Z,48.50
2022-09-25T14:48:56.044Z,48.66
2022-09-25T14:51:31.437Z,48.54
2022-09-25T14:54:13.403Z,48.74
2022-09-25T14:56:49.841Z,48.78
2022-09-25T14:59:46.031Z,48.70
2022-09-25T15:03:09.578Z,48.83
2022-09-25T15:05:50.732Z,48.90
2022-09-25T15:08:26.103Z,49.07
2022-09-25T15:11:13.859Z,49.16
2022-09-25T15:14:11.505Z,49.33
2022-09-25T15:17:05.010Z,49.40
2022-09-25T15:19:40.300Z,49.63
2022-09-25T15:22:38.666Z,49.78
2022-09-25T15:25:23.103Z,49.80
2022-09-25T15:31:04.970Z,49.62
2022-09-25T15:33:42.513Z,49.71
2022-09-25T15:36:41.807Z,50.25
2022-09-25T15:42:25.451Z,49.42
2022-09-25T15:45:44.461Z,49.26
2022-09-25T15:48:42.148Z,48.91
2022-09-25T15:51:37.712Z,48.84
2022-09-25T15:54:43.411Z,49.00
2022-09-25T15:57:16.803Z,49.16
2022-09-25T16:00:08.513Z,49.25
2022-09-25T16:03:04.587Z,49.40
2022-09-25T16:05:37.895Z,49.51
2022-09-25T16:08:33.925Z,49.76
2022-09-25T16:11:29.222Z,50.01
2022-09-25T16:14:32.174Z,50.31
2022-09-25T16:17:33.386Z,50.44
2022-09-25T16:20:56.708Z,50.75
2022-09-25T16:23:57.286Z,51.03
2022-09-25T16:26:47.874Z,51.33
2022-09-25T16:29:23.376Z,51.49
2022-09-25T16:38:01.786Z,52.17
2022-09-25T16:40:39.590Z,52.08
2022-09-25T16:43:43.756Z,52.19
2022-09-25T16:49:52.455Z,52.72
2022-09-25T17:02:37.375Z,53.49
2022-09-25T17:05:20.870Z,53.54
2022-09-25T17:07:52.754Z,53.78
2022-09-25T17:10:29.364Z,53.90
2022-09-25T17:13:05.945Z,54.06
2022-09-25T17:15:40.639Z,54.06
2022-09-25T17:18:23.445Z,54.23
2022-09-25T17:21:21.794Z,54.27
2022-09-25T17:23:58.680Z,54.27
2022-09-25T17:26:37.029Z,54.34
2022-09-25T17:29:13.843Z,54.57
2022-09-25T17:31:46.830Z,54.85
2022-09-25T17:34:51.581Z,54.86
2022-09-25T17:37:28.366Z,55.09
2022-09-25T17:41:16.584Z,55.15
2022-09-25T17:43:57.077Z,55.34
2022-09-25T17:46:34.335Z,55.31
2022-09-25T17:52:27.470Z,55.48
2022-09-25T17:55:06.682Z,55.63
2022-09-25T17:57:45.660Z,55.71
2022-09-25T18:00:45.253Z,55.73
2022-09-25T18:03:46.857Z,55.76
2022-09-25T18:06:31.219Z,55.66
2022-09-25T18:09:32.755Z,55.84
2022-09-25T18:16:46.057Z,56.04
2022-09-25T18:19:45.752Z,56.06
2022-09-25T18:22:22.454Z,56.17
2022-09-25T18:24:58.930Z,56.23
2022-09-25T18:27:57.312Z,56.35
2022-09-25T18:30:32.797Z,56.43
2022-09-25T18:33:10.594Z,56.50
2022-09-25T18:35:46.526Z,56.53
2022-09-25T18:38:50.595Z,56.40
2022-09-25T18:41:32.625Z,56.39
2022-09-25T18:44:41.304Z,56.36
2022-09-25T18:47:49.810Z,56.55
2022-09-25T18:50:29.730Z,56.63
2022-09-25T18:53:16.098Z,56.75
2022-09-25T18:55:53.643Z,56.80
2022-09-25T18:58:31.764Z,56.90
2022-09-25T19:01:07.606Z,56.90
2022-09-25T19:03:44.589Z,56.97
2022-09-25T19:07:04.426Z,57.14
2022-09-25T19:09:44.139Z,57.24
2022-09-25T19:12:41.217Z,57.35
2022-09-25T19:15:25.066Z,57.51
2022-09-25T19:18:00.294Z,57.73
2022-09-25T19:20:35.569Z,57.76
2022-09-25T19:26:27.624Z,58.16
2022-09-25T19:29:01.864Z,58.11
2022-09-25T19:31:44.647Z,58.12
2022-09-25T19:34:19.588Z,58.06
2022-09-25T19:36:57.447Z,58.11
2022-09-25T19:40:13.439Z,58.06
2022-09-25T19:42:48.543Z,57.90
2022-09-25T19:45:20.671Z,57.97
2022-09-25T19:48:19.740Z,58.02
2022-09-25T19:51:16.679Z,58.06
2022-09-25T19:54:15.240Z,57.99
2022-09-25T19:57:11.398Z,57.99
2022-09-25T19:59:49.640Z,58.03
2022-09-25T20:02:30.759Z,57.95
2022-09-25T20:05:17.928Z,58.02
2022-09-25T20:07:49.796Z,58.07
2022-09-25T20:10:20.725Z,58.08
2022-09-25T20:12:52.718Z,57.99
2022-09-25T20:15:26.045Z,58.11
2022-09-25T20:18:03.860Z,58.27
2022-09-25T20:20:36.445Z,58.46
2022-09-25T20:23:12.310Z,58.57
2022-09-25T20:25:42.266Z,58.46
2022-09-25T20:28:59.012Z,58.51
2022-09-25T20:31:56.066Z,58.61
2022-09-25T20:34:27.823Z,58.59
2022-09-25T20:37:06.146Z,58.58
2022-09-25T20:40:10.799Z,58.52
2022-09-25T20:42:52.799Z,58.67
2022-09-25T20:45:48.325Z,58.83
2022-09-25T20:48:20.837Z,58.90
2022-09-25T20:52:04.436Z,58.93
2022-09-25T20:57:54.714Z,58.89
2022-09-25T21:00:31.936Z,58.78
2022-09-25T21:03:04.863Z,58.96
2022-09-25T21:05:49.547Z,58.94
2022-09-25T21:08:20.855Z,59.08
2022-09-25T21:10:55.762Z,59.17
2022-09-25T21:13:51.323Z,59.17
2022-09-25T21:16:33.225Z,59.21
2022-09-25T21:19:31.944Z,59.23
2022-09-25T21:22:24.762Z,59.20
2022-09-25T21:25:18.498Z,59.34
2022-09-25T21:28:17.110Z,59.22
2022-09-25T21:30:47.506Z,59.37
2022-09-25T21:34:36.507Z,59.33
2022-09-25T21:37:32.842Z,59.49
2022-09-25T21:40:20.335Z,59.60
2022-09-25T21:43:13.701Z,59.58
2022-09-25T21:46:08.945Z,59.74
2022-09-25T21:55:22.261Z,59.68
2022-09-25T21:57:56.258Z,59.63
2022-09-25T22:00:26.705Z,59.67
2022-09-25T22:03:00.547Z,59.78
2022-09-25T22:05:34.827Z,59.92
2022-09-25T22:08:08.619Z,60.01
2022-09-25T22:17:57.245Z,60.52
2022-09-25T22:20:32.299Z,60.49
2022-09-25T22:23:08.314Z,60.44
2022-09-25T22:25:38.685Z,60.60
2022-09-25T22:28:08.672Z,60.56
2022-09-25T22:30:45.490Z,60.47
2022-09-25T22:33:24.299Z,60.36
2022-09-25T22:36:05.105Z,60.25
2022-09-25T22:39:23.781Z,60.31
2022-09-25T22:42:01.898Z,60.63
2022-09-25T22:45:27.922Z,60.54
2022-09-25T22:47:59.555Z,60.38
2022-09-25T22:50:33.661Z,60.14
2022-09-25T22:53:07.396Z,60.30
2022-09-25T22:55:38.160Z,60.43
2022-09-25T22:58:06.733Z,60.41
2022-09-25T23:00:38.979Z,60.44
2022-09-25T23:03:11.276Z,60.44
2022-09-25T23:05:51.880Z,60.39
2022-09-25T23:08:21.888Z,60.32
2022-09-25T23:11:46.108Z,60.48
2022-09-25T23:14:29.855Z,60.71
2022-09-25T23:20:48.248Z,61.04
2022-09-25T23:23:19.772Z,61.26
2022-09-25T23:25:53.091Z,61.26
2022-09-25T23:28:22.316Z,61.21
2022-09-25T23:30:57.343Z,61.21
2022-09-25T23:33:28.594Z,61.23
2022-09-25T23:36:25.496Z,61.14
2022-09-25T23:39:24.929Z,61.04
2022-09-25T23:42:03.744Z,61.42
2022-09-25T23:45:24.484Z,61.44
2022-09-25T23:47:57.755Z,61.27
2022-09-25T23:50:30.677Z,61.24
2022-09-25T23:53:09.296Z,61.10
2022-09-25T23:56:07.635Z,61.00
2022-09-25T23:59:27.297Z,60.83
